Mount Buller, Australia
Current Conditions -  °F | °C
As of 10:00 PM on Tuesday 21 Oct 2014 (Local Time) from YMAY Reporting Station
Clear Clear  
Wind Chill: 64°   Ceiling: Unl
Heat Index: 64°   Visibility: 6mi
Dew Point: 52°   Wind: 6mph
Humidity: 64%   Direction: 80°E
Pressure: 30.24"   Gusts: NA
Location:  37.15°S, 146.45°E
Report Text: YMAY 211100Z AUTO 08005KT 9999 // NCD 18/11 Q1024
Loading
Personal Weather Stations






























Interactive Weather Map
Tropical Storm Tracking
New forecast layout! Learn more

10-Day Weather Forecast

Advertisements
Track Severe Weather on mobile